Time;durP1;ratioP1;P1;durP2;ratioP2;P2;SDS_P1;SDS_P2;PMS_P1;PMS_P2;Temp;Humidity;BMP_temperature;BMP_pressure;BME280_temperature;BME280_humidity;BME280_pressure;Samples;Min_cycle;Max_cycle;Signal;HPM_P1;HPM_P2
2021/03/01 00:00:13;;;;;;;20.23;11.25;;;;;;;5.65;57.17;101213.75;4408032;32;34356;-88
2021/03/01 00:02:42;;;;;;;16.62;10.82;;;;;;;5.33;57.91;101222.50;4419163;32;33782;-86
2021/03/01 00:05:11;;;;;;;16.15;10.13;;;;;;;5.88;56.25;101214.56;4421416;32;34777;-86
2021/03/01 00:07:39;;;;;;;19.62;10.45;;;;;;;5.35;57.99;101210.25;4397888;32;34839;-86
2021/03/01 00:10:07;;;;;;;19.95;9.65;;;;;;;5.23;58.50;101204.16;4420908;32;34373;-86
2021/03/01 00:12:35;;;;;;;18.65;10.57;;;;;;;5.24;58.53;101198.91;4420868;32;32619;-86
2021/03/01 00:15:04;;;;;;;19.20;9.45;;;;;;;5.40;58.32;101200.66;4395947;32;33436;-86
2021/03/01 00:17:32;;;;;;;16.00;9.38;;;;;;;5.39;58.72;101206.78;4416580;32;34968;-86
2021/03/01 00:20:01;;;;;;;18.48;9.55;;;;;;;5.24;58.92;101205.91;4407751;32;35367;-86
2021/03/01 00:22:28;;;;;;;21.33;10.52;;;;;;;5.46;58.28;101201.53;4395925;32;33814;-86
2021/03/01 00:24:55;;;;;;;18.80;9.23;;;;;;;5.38;58.39;101199.78;4419765;32;34808;-86
2021/03/01 00:27:37;;;;;;;19.00;9.38;;;;;;;5.30;58.58;101191.06;4420343;32;34180;-86
2021/03/01 00:30:07;;;;;;;18.23;9.70;;;;;;;5.58;57.79;101185.81;4408200;32;34168;-86
2021/03/01 00:32:34;;;;;;;16.15;9.77;;;;;;;5.56;57.96;101183.19;4409564;32;34309;-86
2021/03/01 00:35:06;;;;;;;16.75;10.70;;;;;;;5.63;57.87;101177.06;4393243;32;32144;-86
2021/03/01 00:37:35;;;;;;;17.87;10.07;;;;;;;5.51;57.87;101177.09;4419993;32;35768;-86
2021/03/01 00:40:03;;;;;;;16.80;10.35;;;;;;;5.71;57.14;101176.19;4404677;32;34409;-86
2021/03/01 00:42:31;;;;;;;16.15;9.30;;;;;;;5.87;56.59;101173.50;4405857;32;33045;-86
2021/03/01 00:44:58;;;;;;;17.10;9.35;;;;;;;5.49;57.76;101175.34;4407114;32;34578;-86
2021/03/01 00:47:27;;;;;;;14.70;9.35;;;;;;;5.63;57.05;101158.72;4421447;32;34244;-86
2021/03/01 00:49:54;;;;;;;15.98;10.23;;;;;;;5.90;56.25;101151.69;4412325;32;35445;-86
2021/03/01 00:52:22;;;;;;;19.77;9.38;;;;;;;5.94;56.06;101149.97;4415231;32;34128;-88
2021/03/01 00:54:49;;;;;;;18.12;8.93;;;;;;;5.66;57.23;101157.84;4408069;32;35206;-88
2021/03/01 00:57:17;;;;;;;13.48;8.98;;;;;;;5.89;56.35;101149.94;4418547;32;34640;-89
2021/03/01 00:59:44;;;;;;;17.05;8.60;;;;;;;5.57;57.46;101153.50;4423168;32;33683;-89
2021/03/01 01:02:13;;;;;;;15.63;9.48;;;;;;;6.08;55.69;101150.78;4415086;32;33684;-89
2021/03/01 01:04:43;;;;;;;17.02;9.45;;;;;;;5.46;57.35;101150.03;4410920;32;33301;-89
2021/03/01 01:07:10;;;;;;;15.77;9.35;;;;;;;5.28;58.19;101145.66;4409881;32;34293;-89
2021/03/01 01:09:38;;;;;;;17.73;9.15;;;;;;;5.40;57.43;101137.78;4422462;32;34143;-89
2021/03/01 01:12:06;;;;;;;17.67;9.98;;;;;;;5.18;58.27;101133.47;4414418;32;33990;-86
2021/03/01 01:14:34;;;;;;;14.70;9.27;;;;;;;5.23;58.02;101123.00;4420716;32;35431;-86
2021/03/01 01:17:03;;;;;;;16.85;9.52;;;;;;;5.03;58.69;101121.25;4419800;32;34482;-86
2021/03/01 01:19:30;;;;;;;18.30;9.43;;;;;;;5.37;57.70;101116.84;4407177;32;33766;-86
2021/03/01 01:21:58;;;;;;;18.30;9.70;;;;;;;5.30;58.31;101122.97;4409890;32;34024;-87
2021/03/01 01:24:25;;;;;;;14.25;8.70;;;;;;;5.09;59.06;101128.22;4412540;32;34110;-87
2021/03/01 01:26:53;;;;;;;14.27;9.63;;;;;;;5.23;58.38;101117.75;4422370;32;33708;-86
2021/03/01 01:29:20;;;;;;;16.20;9.23;;;;;;;5.52;57.49;101120.31;4413652;32;35235;-86
2021/03/01 01:31:47;;;;;;;16.35;9.18;;;;;;;5.29;58.51;101118.59;4421929;32;34277;-86
2021/03/01 01:34:15;;;;;;;14.87;9.27;;;;;;;5.60;57.45;101110.69;4409255;32;34800;-86
2021/03/01 01:36:43;;;;;;;13.27;7.85;;;;;;;5.71;56.67;101108.91;4408252;32;35243;-87
2021/03/01 01:39:11;;;;;;;15.80;8.13;;;;;;;5.51;57.18;101118.59;4409339;32;33696;-86
2021/03/01 01:41:38;;;;;;;17.52;8.55;;;;;;;5.14;58.89;101110.78;4434020;32;32851;-86
2021/03/01 01:44:05;;;;;;;15.75;8.32;;;;;;;5.24;58.37;101107.25;4409162;32;35484;-86
2021/03/01 01:46:33;;;;;;;10.98;7.70;;;;;;;5.32;58.10;101104.66;4422348;32;34072;-86
2021/03/01 01:49:00;;;;;;;16.80;9.35;;;;;;;5.14;58.54;101100.28;4409728;32;35492;-86
2021/03/01 01:51:28;;;;;;;15.35;9.35;;;;;;;5.31;58.02;101111.59;4407528;32;34520;-86
2021/03/01 01:54:02;;;;;;;17.12;8.32;;;;;;;5.59;57.31;101106.31;4424662;32;34597;-86
2021/03/01 01:56:35;;;;;;;17.30;9.55;;;;;;;5.55;57.24;101112.44;4422422;32;34866;-86
2021/03/01 01:59:02;;;;;;;;;;;;;;;5.61;56.95;101117.69;4408968;32;34276;-86
2021/03/01 02:01:30;;;;;;;17.50;8.32;;;;;;;5.49;57.08;101117.69;4432253;32;33070;-86
2021/03/01 02:04:17;;;;;;;14.82;8.40;;;;;;;5.44;57.30;101119.47;4434406;32;33328;-86
2021/03/01 02:06:48;;;;;;;21.65;8.90;;;;;;;5.37;57.54;101122.09;4409356;32;34156;-87
2021/03/01 02:10:06;;;;;;;14.93;8.63;;;;;;;5.16;58.06;101129.09;4418185;32;35179;-87
2021/03/01 02:12:44;;;;;;;14.70;8.30;;;;;;;5.28;57.75;101127.34;4432276;32;32621;-85
2021/03/01 02:15:30;;;;;;;14.90;8.80;;;;;;;5.30;57.97;101133.44;4421209;32;33004;-85
2021/03/01 02:17:58;;;;;;;17.58;8.65;;;;;;;4.92;59.20;101132.56;4429908;32;35373;-85
2021/03/01 02:20:25;;;;;;;14.65;8.73;;;;;;;5.31;58.13;101129.94;4421942;32;34744;-85
2021/03/01 02:22:53;;;;;;;14.90;9.00;;;;;;;5.34;57.88;101121.22;4419862;32;34144;-85
2021/03/01 02:25:24;;;;;;;14.48;8.80;;;;;;;5.21;58.36;101119.47;4423925;32;35403;-86
2021/03/01 02:27:59;;;;;;;13.13;8.20;;;;;;;4.88;59.43;101109.00;4401964;32;34745;-86
2021/03/01 02:30:30;;;;;;;17.35;8.18;;;;;;;4.56;60.77;101105.50;4421195;32;35860;-86
2021/03/01 02:33:06;;;;;;;16.48;8.73;;;;;;;4.86;60.17;101121.22;4421973;32;33574;-85
2021/03/01 02:35:36;;;;;;;23.12;9.20;;;;;;;5.35;58.70;101102.00;4422153;32;33938;-86
2021/03/01 02:38:07;;;;;;;14.10;7.82;;;;;;;5.68;57.26;101113.28;4410980;32;34566;-85
2021/03/01 02:40:36;;;;;;;13.88;7.55;;;;;;;5.54;57.80;101110.69;4401329;32;34454;-85
2021/03/01 02:43:04;;;;;;;15.32;8.15;;;;;;;5.57;57.60;101121.19;4407545;32;33180;-85
2021/03/01 02:45:32;;;;;;;13.77;8.32;;;;;;;5.57;57.74;101126.44;4400191;32;34839;-85
2021/03/01 02:48:00;;;;;;;14.85;7.65;;;;;;;6.17;55.92;101129.75;4398608;32;33378;-84
2021/03/01 02:50:30;;;;;;;14.13;8.00;;;;;;;6.12;55.96;101142.00;4403052;32;33448;-85
2021/03/01 02:52:58;;;;;;;14.50;7.75;;;;;;;5.85;56.83;101130.72;4415628;32;33786;-85
2021/03/01 02:55:27;;;;;;;13.23;8.75;;;;;;;6.03;56.20;101142.03;4410880;32;33403;-85
2021/03/01 02:58:12;;;;;;;18.27;8.52;;;;;;;6.24;55.84;101135.84;4419371;32;33590;-85
2021/03/01 03:00:40;;;;;;;16.05;8.48;;;;;;;6.23;55.81;101132.34;4388877;32;33719;-86
2021/03/01 03:03:09;;;;;;;13.40;7.37;;;;;;;6.19;55.81;101138.50;4417082;32;34025;-87
2021/03/01 03:05:40;;;;;;;14.57;8.75;;;;;;;6.12;56.20;101126.25;4415528;32;34612;-87
2021/03/01 03:08:09;;;;;;;16.00;7.95;;;;;;;6.28;55.61;101133.19;4403431;32;33450;-87
2021/03/01 03:10:38;;;;;;;14.15;7.62;;;;;;;6.19;55.85;101121.87;4398045;32;34029;-86
2021/03/01 03:13:06;;;;;;;11.55;7.37;;;;;;;6.20;55.78;101140.22;4414152;32;32853;-87
2021/03/01 03:15:34;;;;;;;13.82;8.25;;;;;;;6.17;55.80;101150.72;4412383;32;33295;-86
2021/03/01 03:18:03;;;;;;;14.50;8.40;;;;;;;6.25;55.66;101148.94;4413942;32;34670;-86
2021/03/01 03:20:31;;;;;;;16.42;8.05;;;;;;;6.20;55.71;101153.34;4401121;32;34620;-86
2021/03/01 03:22:58;;;;;;;16.70;8.30;;;;;;;6.29;55.54;101169.03;4398839;32;33854;-86
2021/03/01 03:25:27;;;;;;;16.55;8.38;;;;;;;6.10;56.04;101163.00;4412825;32;33595;-86
2021/03/01 03:27:54;;;;;;;14.65;8.20;;;;;;;6.30;55.56;101177.78;4412354;32;35663;-86
2021/03/01 03:30:24;;;;;;;16.23;8.32;;;;;;;6.22;55.73;101176.94;4413625;32;35139;-87
2021/03/01 03:32:52;;;;;;;15.90;8.63;;;;;;;6.11;55.99;101184.84;4412500;32;32899;-87
2021/03/01 03:35:21;;;;;;;15.38;7.87;;;;;;;5.83;56.86;101186.63;4401594;32;33495;-88
2021/03/01 03:38:11;;;;;;;17.92;9.65;;;;;;;6.09;56.23;101184.00;4393409;32;34370;-88
2021/03/01 03:40:46;;;;;;;16.58;8.07;;;;;;;6.24;55.82;101177.81;4381278;32;34702;-89
2021/03/01 03:43:14;;;;;;;16.48;9.07;;;;;;;6.18;55.71;101180.47;4395357;32;34003;-89
2021/03/01 03:45:42;;;;;;;16.08;8.82;;;;;;;6.20;55.48;101191.81;4398994;32;35058;-89
2021/03/01 03:48:12;;;;;;;18.35;9.35;;;;;;;5.95;56.44;101191.88;4396628;32;34269;-89
2021/03/01 03:50:41;;;;;;;17.37;9.10;;;;;;;5.83;56.87;101205.84;4393554;32;35520;-89
2021/03/01 03:53:14;;;;;;;13.68;9.02;;;;;;;5.94;56.91;101212.87;4412615;32;32971;-89
2021/03/01 03:55:46;;;;;;;16.10;9.40;;;;;;;5.70;57.44;101222.50;4422823;32;34636;-89
2021/03/01 03:58:22;;;;;;;15.38;9.60;;;;;;;5.65;57.73;101219.00;4406244;32;34514;-89
2021/03/01 04:00:51;;;;;;;16.37;8.73;;;;;;;5.52;58.02;101212.03;4393106;32;34396;-89
2021/03/01 04:03:22;;;;;;;15.43;9.35;;;;;;;5.59;57.82;101224.22;4400692;32;34924;-87
2021/03/01 04:05:51;;;;;;;13.80;8.68;;;;;;;5.46;58.01;101227.72;4397755;32;34413;-88
2021/03/01 04:08:20;;;;;;;14.18;8.52;;;;;;;5.62;57.56;101232.09;4393681;32;34732;-87
2021/03/01 04:10:50;;;;;;;17.70;8.98;;;;;;;5.54;57.57;101237.31;4399290;32;34253;-88
2021/03/01 04:13:19;;;;;;;15.85;9.23;;;;;;;5.45;57.66;101233.84;4422018;32;33976;-87
2021/03/01 04:15:47;;;;;;;14.77;9.23;;;;;;;5.48;57.48;101231.22;4405660;32;33891;-88
2021/03/01 04:18:19;;;;;;;18.05;9.50;;;;;;;5.29;58.08;101236.44;4392292;32;33300;-88
2021/03/01 04:20:47;;;;;;;17.52;9.32;;;;;;;5.26;58.05;101235.56;4400439;32;34197;-88
2021/03/01 04:23:16;;;;;;;15.60;9.00;;;;;;;5.28;57.63;101253.03;4405740;32;32981;-87
2021/03/01 04:25:44;;;;;;;15.52;9.70;;;;;;;5.20;58.12;101241.69;4405419;32;34067;-86
2021/03/01 04:28:12;;;;;;;16.83;9.88;;;;;;;5.13;58.08;101250.41;4412482;32;33038;-87
2021/03/01 04:30:41;;;;;;;18.10;9.55;;;;;;;5.03;58.45;101253.84;4405553;32;33405;-86
2021/03/01 04:33:10;;;;;;;19.40;11.23;;;;;;;5.35;57.72;101262.66;4399065;32;35032;-87
2021/03/01 04:35:39;;;;;;;17.75;9.73;;;;;;;5.24;58.30;101264.37;4419600;32;34432;-87
2021/03/01 04:38:07;;;;;;;16.25;9.23;;;;;;;5.07;58.28;101272.19;4419667;32;33596;-86
2021/03/01 04:40:35;;;;;;;15.30;9.55;;;;;;;5.17;57.62;101273.09;4420608;32;33522;-86
2021/03/01 04:43:03;;;;;;;19.73;11.32;;;;;;;4.65;58.95;101272.06;4421990;32;33147;-87
2021/03/01 04:45:31;;;;;;;18.83;11.27;;;;;;;4.75;58.75;101264.28;4405770;32;33749;-87
2021/03/01 04:47:58;;;;;;;20.85;12.02;;;;;;;4.83;58.37;101254.69;4412181;32;33331;-86
2021/03/01 04:50:26;;;;;;;21.80;12.43;;;;;;;4.81;58.23;101266.03;4406734;32;33783;-86
2021/03/01 04:52:54;;;;;;;24.35;13.80;;;;;;;4.77;58.06;101267.75;4408075;32;34467;-85
2021/03/01 04:55:21;;;;;;;22.65;13.93;;;;;;;4.78;58.10;101269.50;4415068;32;34405;-86
2021/03/01 04:57:51;;;;;;;30.98;15.32;;;;;;;4.77;58.29;101275.59;4401769;32;34231;-85
2021/03/01 05:00:19;;;;;;;24.30;13.10;;;;;;;4.73;58.50;101283.44;4413932;32;34500;-86
2021/03/01 05:02:47;;;;;;;28.38;13.02;;;;;;;4.56;58.71;101280.78;4414691;32;32833;-85
2021/03/01 05:05:15;;;;;;;18.33;10.88;;;;;;;4.64;58.15;101286.88;4403308;32;33051;-86
2021/03/01 05:07:44;;;;;;;19.52;11.63;;;;;;;4.49;58.51;101289.44;4411831;32;33213;-85
2021/03/01 05:10:12;;;;;;;21.25;12.15;;;;;;;4.36;58.86;101291.97;4417028;32;33776;-85
2021/03/01 05:12:40;;;;;;;16.65;9.95;;;;;;;4.29;58.99;101303.28;4412182;32;32823;-86
2021/03/01 05:15:08;;;;;;;17.95;10.23;;;;;;;4.41;58.82;101298.97;4393765;32;35734;-86
2021/03/01 05:17:38;;;;;;;19.10;10.88;;;;;;;4.31;59.17;101304.16;4414706;32;34800;-86
2021/03/01 05:20:07;;;;;;;15.57;9.60;;;;;;;4.37;58.93;101298.13;4398780;32;33708;-86
2021/03/01 05:22:34;;;;;;;19.58;11.05;;;;;;;4.13;59.53;101309.28;4417693;32;35004;-86
2021/03/01 05:25:02;;;;;;;17.87;10.30;;;;;;;3.95;59.74;101312.66;4406891;32;34625;-85
2021/03/01 05:27:32;;;;;;;17.77;10.43;;;;;;;4.27;59.03;101317.19;4424452;32;32573;-85
2021/03/01 05:30:00;;;;;;;18.70;10.25;;;;;;;3.29;62.07;101319.88;4403724;32;34658;-86
2021/03/01 05:32:27;;;;;;;21.48;10.70;;;;;;;2.99;63.35;101324.75;4397266;32;33587;-86
2021/03/01 05:34:55;;;;;;;18.85;10.45;;;;;;;3.46;62.08;101324.38;4410880;32;35576;-86
2021/03/01 05:37:23;;;;;;;21.92;11.98;;;;;;;2.98;63.51;101325.63;4403576;32;33045;-86
2021/03/01 05:39:51;;;;;;;18.25;10.65;;;;;;;3.22;63.26;101331.13;4390141;32;34050;-86
2021/03/01 05:42:19;;;;;;;20.88;11.50;;;;;;;2.87;63.83;101343.75;4391331;32;34185;-89
2021/03/01 05:44:47;;;;;;;22.37;12.48;;;;;;;3.13;63.22;101340.56;4394822;32;35564;-88
2021/03/01 05:47:17;;;;;;;18.60;10.80;;;;;;;2.81;64.26;101349.78;4396927;32;33907;-86
2021/03/01 05:49:45;;;;;;;26.10;12.50;;;;;;;2.90;64.19;101343.81;4393066;32;33488;-84
2021/03/01 05:52:17;;;;;;;20.48;12.63;;;;;;;3.16;63.39;101349.31;4389888;32;34327;-84
2021/03/01 05:54:45;;;;;;;17.87;10.70;;;;;;;3.26;63.24;101359.00;4414185;32;33435;-87
2021/03/01 05:57:13;;;;;;;19.02;11.50;;;;;;;3.26;63.28;101365.97;4410870;32;33424;-87
2021/03/01 05:59:46;;;;;;;18.98;11.32;;;;;;;3.49;62.43;101366.22;4405327;32;34361;-88
2021/03/01 06:02:15;;;;;;;;;;;;;;;3.52;62.19;101367.12;4390419;32;33677;-87
2021/03/01 06:04:43;;;;;;;19.90;10.40;;;;;;;3.50;62.64;101383.63;4414644;32;32889;-87
2021/03/01 06:07:10;;;;;;;21.90;12.80;;;;;;;3.42;62.79;101374.81;4393945;32;34578;-87
2021/03/01 06:09:41;;;;;;;20.88;11.68;;;;;;;3.67;62.37;101382.06;4391294;32;34527;-87
2021/03/01 06:12:09;;;;;;;20.85;12.75;;;;;;;3.82;62.21;101382.22;4401047;32;31990;-84
2021/03/01 06:14:36;;;;;;;25.00;12.75;;;;;;;3.71;62.50;101386.47;4390269;32;33272;-91
2021/03/01 06:17:13;;;;;;;31.20;13.80;;;;;;;3.95;61.70;101392.78;4390387;32;32846;-92
2021/03/01 06:19:56;;;;;;;27.33;13.77;;;;;;;3.79;62.60;101390.00;4398201;32;34063;-92
2021/03/01 06:22:37;;;;;;;27.52;15.23;;;;;;;4.11;61.98;101390.31;4395466;32;34262;-87
2021/03/01 06:25:11;;;;;;;23.77;12.48;;;;;;;4.17;61.89;101402.53;4417971;32;33436;-87
2021/03/01 06:27:58;;;;;;;29.67;14.45;;;;;;;4.35;61.30;101394.84;4384644;32;35365;-89
2021/03/01 06:30:27;;;;;;;26.30;13.88;;;;;;;4.47;61.02;101412.38;4388105;32;33319;-89
2021/03/01 06:33:03;;;;;;;25.50;14.35;;;;;;;4.26;61.31;101415.69;4392338;32;32967;-89
2021/03/01 06:35:34;;;;;;;21.80;12.60;;;;;;;4.69;60.47;101413.37;4405094;32;34822;-89
2021/03/01 06:38:21;;;;;;;20.08;11.93;;;;;;;4.71;60.55;101416.03;4380626;32;34557;-89
2021/03/01 06:45:13;;;;;;;33.80;18.25;;;;;;;5.11;59.54;101415.34;4394187;32;35300;-89
2021/03/01 06:48:10;;;;;;;37.85;20.83;;;;;;;5.36;59.15;101413.72;4392926;32;33624;-89
2021/03/01 06:50:47;;;;;;;53.00;26.45;;;;;;;5.28;59.25;101427.66;4373804;32;34824;-89
2021/03/01 06:53:15;;;;;;;51.17;26.08;;;;;;;5.24;59.57;101424.13;4394008;32;33288;-89
2021/03/01 06:56:00;;;;;;;41.10;23.67;;;;;;;5.51;59.08;101426.00;4395516;32;34352;-89
2021/03/01 06:58:41;;;;;;;39.50;20.75;;;;;;;6.05;58.11;101434.84;4395776;32;35050;-89
2021/03/01 07:01:19;;;;;;;34.80;18.40;;;;;;;6.24;58.29;101429.63;4382733;32;34793;-89
2021/03/01 07:03:49;;;;;;;29.85;17.60;;;;;;;6.29;57.83;101433.13;4407903;32;34097;-90
2021/03/01 07:06:20;;;;;;;33.42;18.30;;;;;;;6.13;58.34;101434.88;4395058;32;32236;-88
2021/03/01 07:08:54;;;;;;;26.35;15.95;;;;;;;6.12;57.68;101430.47;4392954;32;33992;-85
2021/03/01 07:11:37;;;;;;;25.52;14.15;;;;;;;6.35;57.07;101438.34;4403405;32;35462;-85
2021/03/01 07:14:05;;;;;;;18.45;11.80;;;;;;;6.47;56.87;101432.25;4415343;32;33151;-85
2021/03/01 07:16:41;;;;;;;21.27;11.68;;;;;;;7.08;54.95;101429.50;4406187;32;33202;-85
2021/03/01 07:19:27;;;;;;;22.30;11.90;;;;;;;7.22;54.55;101427.69;4403913;32;32925;-85
2021/03/01 07:21:56;;;;;;;20.33;11.35;;;;;;;7.15;54.76;101428.56;4415986;32;33229;-85
2021/03/01 07:24:26;;;;;;;17.37;9.73;;;;;;;7.26;53.54;101433.78;4386824;32;36082;-85
2021/03/01 07:26:56;;;;;;;17.50;8.85;;;;;;;7.58;51.08;101438.91;4395813;32;33138;-85
2021/03/01 07:29:25;;;;;;;20.45;9.73;;;;;;;7.63;50.71;101434.47;4384692;32;34417;-85
2021/03/01 07:32:00;;;;;;;19.62;9.02;;;;;;;7.52;51.48;101446.81;4390604;32;34683;-85
2021/03/01 07:34:29;;;;;;;17.27;8.98;;;;;;;7.72;49.60;101444.94;4405656;32;34907;-85
2021/03/01 07:36:58;;;;;;;14.07;7.72;;;;;;;8.25;48.76;101441.06;4393157;32;34148;-85
2021/03/01 07:39:27;;;;;;;16.12;9.25;;;;;;;8.49;48.39;101439.16;4397070;32;33589;-85
2021/03/01 07:41:56;;;;;;;19.10;8.93;;;;;;;8.91;47.23;101446.63;4403968;32;32791;-85
2021/03/01 07:44:25;;;;;;;14.80;9.15;;;;;;;8.74;47.96;101447.72;4406764;32;33289;-84
2021/03/01 07:46:53;;;;;;;15.48;9.23;;;;;;;8.71;46.62;101443.34;4404407;32;33274;-84
2021/03/01 07:49:41;;;;;;;25.85;10.32;;;;;;;8.94;46.72;101438.72;4390613;32;33735;-85
2021/03/01 07:52:18;;;;;;;18.40;9.90;;;;;;;9.35;45.13;101437.37;4416610;32;33767;-85
2021/03/01 07:54:52;;;;;;;27.33;10.73;;;;;;;9.51;45.55;101432.75;4391746;32;32803;-85
2021/03/01 07:57:20;;;;;;;27.87;11.12;;;;;;;9.35;46.41;101441.75;4417252;32;34450;-85
2021/03/01 07:59:48;;;;;;;19.08;9.90;;;;;;;9.70;44.54;101444.81;4404124;32;33625;-86
2021/03/01 08:02:25;;;;;;;18.67;8.48;;;;;;;9.75;44.51;101448.25;4405104;32;33762;-85
2021/03/01 08:04:54;;;;;;;18.05;8.82;;;;;;;9.92;43.59;101455.03;4405736;32;33142;-85
2021/03/01 08:07:37;;;;;;;15.45;9.40;;;;;;;9.81;43.35;101449.91;4404701;32;33000;-85
2021/03/01 08:10:09;;;;;;;16.85;10.30;;;;;;;9.81;43.03;101451.69;4416868;32;33637;-85
2021/03/01 08:12:39;;;;;;;17.92;9.25;;;;;;;9.30;45.17;101465.53;4404261;32;33423;-85
2021/03/01 08:15:11;;;;;;;16.23;9.55;;;;;;;9.37;44.79;101466.34;4418357;32;33212;-87
2021/03/01 08:17:39;;;;;;;18.95;9.57;;;;;;;9.30;45.00;101464.66;4394000;32;33194;-86
2021/03/01 08:20:16;;;;;;;14.60;8.57;;;;;;;10.03;43.51;101457.53;4380801;32;34037;-86
2021/03/01 08:23:02;;;;;;;20.55;10.02;;;;;;;9.65;44.51;101467.72;4418061;32;33318;-84
2021/03/01 08:25:42;;;;;;;16.00;9.90;;;;;;;10.18;44.77;101478.41;4417286;32;33793;-85
2021/03/01 08:28:22;;;;;;;17.12;10.10;;;;;;;10.16;43.08;101470.53;4403893;32;33065;-84
2021/03/01 08:30:53;;;;;;;16.50;9.95;;;;;;;10.05;43.67;101483.00;4416131;32;33929;-84
2021/03/01 08:33:28;;;;;;;20.48;10.07;;;;;;;10.13;43.64;101475.84;4399880;32;34254;-84
2021/03/01 08:36:01;;;;;;;16.67;9.93;;;;;;;10.49;43.65;101487.63;4404959;32;33060;-84
2021/03/01 08:38:42;;;;;;;21.10;10.07;;;;;;;10.38;42.33;101492.19;4405029;32;33609;-85
2021/03/01 08:41:10;;;;;;;21.00;10.25;;;;;;;10.64;42.62;101498.84;4418117;32;34636;-85
2021/03/01 08:43:45;;;;;;;18.50;9.10;;;;;;;10.83;42.06;101494.97;4404337;32;33502;-85
2021/03/01 08:46:16;;;;;;;18.25;10.20;;;;;;;10.87;42.48;101494.03;4398586;32;33737;-85
2021/03/01 08:48:46;;;;;;;18.62;10.23;;;;;;;10.50;42.85;101499.94;4403431;32;34219;-85
2021/03/01 08:51:15;;;;;;;17.62;11.05;;;;;;;10.36;42.43;101499.28;4393809;32;34145;-85
2021/03/01 08:53:43;;;;;;;24.98;15.45;;;;;;;10.41;43.27;101508.00;4398719;32;34933;-85
2021/03/01 08:56:22;;;;;;;20.80;9.15;;;;;;;10.80;43.16;101500.31;4392688;32;33874;-85
2021/03/01 08:58:50;;;;;;;15.77;9.18;;;;;;;10.79;41.50;101503.84;4391307;32;33719;-85
2021/03/01 09:01:18;;;;;;;18.15;9.82;;;;;;;10.69;41.87;101499.62;4398105;32;34044;-85
2021/03/01 09:03:46;;;;;;;18.15;9.38;;;;;;;11.05;41.96;101499.88;4391686;32;33685;-85
2021/03/01 09:06:15;;;;;;;19.87;9.63;;;;;;;11.58;40.45;101500.56;4401397;32;34340;-85
2021/03/01 09:08:47;;;;;;;15.63;9.45;;;;;;;11.31;40.89;101502.91;4392745;32;34654;-84
2021/03/01 09:11:15;;;;;;;17.23;9.57;;;;;;;11.26;40.59;101505.63;4403298;32;34344;-85
2021/03/01 09:13:44;;;;;;;18.50;10.10;;;;;;;11.39;41.52;101502.72;4417747;32;33413;-85
2021/03/01 09:16:16;;;;;;;16.05;10.43;;;;;;;11.59;40.22;101502.34;4396774;32;34640;-85
2021/03/01 09:18:48;;;;;;;16.62;9.35;;;;;;;11.49;41.16;101497.25;4392550;32;35151;-85
2021/03/01 09:21:17;;;;;;;17.07;8.83;;;;;;;12.12;40.35;101497.69;4394792;32;34004;-85
2021/03/01 09:23:55;;;;;;;15.32;9.20;;;;;;;12.27;39.92;101492.03;4395011;32;33350;-85
2021/03/01 09:26:27;;;;;;;20.85;10.02;;;;;;;12.53;38.93;101488.72;4394156;32;33385;-85
2021/03/01 09:28:56;;;;;;;17.17;9.02;;;;;;;12.61;37.57;101485.91;4419600;32;33016;-85
2021/03/01 09:31:30;;;;;;;15.00;8.88;;;;;;;12.96;37.79;101488.53;4396925;32;34081;-85
2021/03/01 09:33:58;;;;;;;15.88;9.35;;;;;;;12.84;38.10;101502.09;4394718;32;34770;-85
2021/03/01 09:36:30;;;;;;;18.60;9.65;;;;;;;13.01;37.18;101491.91;4407042;32;34189;-84
2021/03/01 09:38:59;;;;;;;16.10;9.15;;;;;;;12.99;36.53;101506.97;4397310;32;32846;-84
2021/03/01 09:41:46;;;;;;;17.25;8.52;;;;;;;13.01;36.88;101510.47;4396145;32;35362;-85
2021/03/01 09:44:27;;;;;;;14.00;7.93;;;;;;;13.35;37.38;101512.25;4401034;32;33278;-85
2021/03/01 09:46:56;;;;;;;10.73;6.90;;;;;;;13.01;37.49;101515.78;4393665;32;34432;-84
2021/03/01 09:49:27;;;;;;;13.68;7.28;;;;;;;12.92;37.01;101510.72;4398766;32;32979;-84
2021/03/01 09:51:54;;;;;;;12.48;6.87;;;;;;;13.06;36.52;101515.66;4390499;32;32537;-84
2021/03/01 09:54:22;;;;;;;12.45;7.47;;;;;;;13.45;36.57;101503.09;4394028;32;33823;-85
2021/03/01 09:56:54;;;;;;;12.60;7.65;;;;;;;13.84;36.80;101510.81;4394441;32;34234;-85
2021/03/01 09:59:34;;;;;;;15.52;7.10;;;;;;;13.94;34.55;101514.94;4398724;32;33152;-85
2021/03/01 10:02:16;;;;;;;17.90;7.90;;;;;;;12.95;38.12;101523.88;4405520;32;33913;-84
2021/03/01 10:04:45;;;;;;;15.23;8.13;;;;;;;13.18;37.89;101517.97;4405228;32;33545;-85
2021/03/01 10:07:28;;;;;;;10.93;6.45;;;;;;;13.49;37.75;101511.84;4398041;32;34586;-85
2021/03/01 10:09:56;;;;;;;10.05;5.78;;;;;;;14.16;35.81;101515.16;4394063;32;33664;-84
2021/03/01 10:12:25;;;;;;;12.15;5.78;;;;;;;13.62;35.72;101522.97;4394234;32;34630;-84
2021/03/01 10:14:59;;;;;;;14.30;5.75;;;;;;;13.92;35.39;101515.91;4394025;32;33483;-84
2021/03/01 10:17:34;;;;;;;12.27;5.82;;;;;;;13.86;35.22;101514.28;4403344;32;33510;-85
2021/03/01 10:20:11;;;;;;;10.60;5.80;;;;;;;14.26;34.31;101513.06;4393763;32;33556;-84
2021/03/01 10:23:02;;;;;;;7.03;4.57;;;;;;;13.96;34.82;101510.47;4403099;32;33471;-84
2021/03/01 10:25:36;;;;;;;11.77;5.40;;;;;;;14.37;36.39;101510.94;4394294;32;34139;-85
2021/03/01 10:28:28;;;;;;;7.37;4.15;;;;;;;14.47;34.97;101512.38;4399259;32;34478;-85
2021/03/01 10:31:13;;;;;;;7.25;4.12;;;;;;;14.64;34.10;101513.66;4406444;32;34022;-85
2021/03/01 10:33:54;;;;;;;6.75;4.90;;;;;;;14.51;33.71;101519.34;4404735;32;34025;-85
2021/03/01 10:36:25;;;;;;;9.70;4.22;;;;;;;14.38;34.68;101531.25;4419142;32;33564;-84
2021/03/01 10:38:53;;;;;;;10.20;5.95;;;;;;;14.40;33.81;101525.91;4396956;32;34551;-85
2021/03/01 10:41:22;;;;;;;14.25;7.35;;;;;;;14.47;35.03;101530.97;4405110;32;32881;-85
2021/03/01 10:43:57;;;;;;;11.02;6.10;;;;;;;14.72;33.67;101522.25;4406562;32;33819;-84
2021/03/01 10:46:32;;;;;;;14.73;6.50;;;;;;;14.41;32.99;101523.19;4391230;32;33503;-85
2021/03/01 10:49:05;;;;;;;9.00;5.72;;;;;;;14.51;36.31;101539.75;4405782;32;34333;-83
2021/03/01 10:51:33;;;;;;;7.28;5.43;;;;;;;14.38;37.17;101538.37;4406071;32;33672;-83
2021/03/01 10:54:00;;;;;;;10.52;6.25;;;;;;;14.55;33.18;101538.75;4393476;32;33662;-83
2021/03/01 10:56:27;;;;;;;8.52;5.45;;;;;;;14.44;36.09;101533.75;4405402;32;33150;-83
2021/03/01 10:58:55;;;;;;;9.85;5.90;;;;;;;14.79;36.11;101527.28;4393707;32;33660;-83
2021/03/01 11:01:37;;;;;;;9.23;5.78;;;;;;;15.13;33.23;101523.47;4393071;32;35159;-83
2021/03/01 11:04:08;;;;;;;7.85;4.93;;;;;;;15.41;34.02;101527.81;4402222;32;34659;-83
2021/03/01 11:06:35;;;;;;;8.88;4.57;;;;;;;15.89;29.50;101525.13;4405765;32;33845;-83
2021/03/01 11:09:07;;;;;;;5.85;4.37;;;;;;;14.97;31.31;101533.78;4393692;32;33415;-83
2021/03/01 11:11:35;;;;;;;5.05;3.60;;;;;;;14.98;31.30;101529.31;4405873;32;33827;-83
2021/03/01 11:14:04;;;;;;;10.10;6.05;;;;;;;15.23;30.41;101529.34;4404110;32;34155;-83
2021/03/01 11:16:31;;;;;;;9.05;4.60;;;;;;;14.77;32.48;101525.63;4416104;32;34150;-83
2021/03/01 11:18:59;;;;;;;10.02;6.10;;;;;;;15.00;32.11;101516.81;4392593;32;33287;-82
2021/03/01 11:21:27;;;;;;;14.27;6.53;;;;;;;14.57;32.65;101527.16;4393156;32;35649;-83
2021/03/01 11:23:54;;;;;;;8.25;5.47;;;;;;;14.59;32.76;101522.63;4393171;32;33667;-83
2021/03/01 11:26:22;;;;;;;10.27;6.45;;;;;;;14.46;32.91;101526.56;4393453;32;33421;-83
2021/03/01 11:28:54;;;;;;;11.90;5.70;;;;;;;14.92;33.41;101517.12;4418183;32;33404;-83
2021/03/01 11:31:21;;;;;;;9.27;5.45;;;;;;;15.06;32.71;101512.19;4405719;32;35138;-83
2021/03/01 11:33:49;;;;;;;8.75;5.82;;;;;;;14.66;32.83;101523.28;4392695;32;34164;-84
2021/03/01 11:36:17;;;;;;;12.37;6.40;;;;;;;14.90;32.64;101504.78;4399744;32;33649;-84
2021/03/01 11:38:45;;;;;;;10.98;6.07;;;;;;;15.40;31.47;101495.00;4405126;32;34144;-84
2021/03/01 11:41:15;;;;;;;13.02;5.70;;;;;;;14.93;33.75;101510.88;4405259;32;32896;-84
2021/03/01 11:43:48;;;;;;;7.53;5.47;;;;;;;15.35;30.93;101500.50;4393202;32;33545;-84